createdAt,value
2019-03-10T00:00:39.427Z,66.40
2019-03-10T00:03:08.015Z,66.20
2019-03-10T00:05:36.910Z,66.40
2019-03-10T00:08:07.879Z,67.30
2019-03-10T00:10:35.866Z,67.00
2019-03-10T00:13:04.618Z,67.60
2019-03-10T00:15:33.151Z,67.00
2019-03-10T00:18:01.692Z,67.30
2019-03-10T00:20:30.270Z,67.50
2019-03-10T00:22:58.734Z,67.70
2019-03-10T00:25:27.227Z,67.90
2019-03-10T00:27:55.698Z,67.80
2019-03-10T00:30:24.340Z,68.00
2019-03-10T00:32:52.879Z,68.20
2019-03-10T00:35:21.590Z,68.50
2019-03-10T00:37:50.068Z,68.70
2019-03-10T00:40:30.855Z,68.90
2019-03-10T00:43:19.136Z,69.30
2019-03-10T00:46:19.662Z,70.00
2019-03-10T00:48:54.092Z,70.70
2019-03-10T00:51:53.102Z,71.30
2019-03-10T00:54:21.580Z,71.80
2019-03-10T00:56:50.314Z,72.20
2019-03-10T00:59:18.882Z,72.10
2019-03-10T01:01:47.423Z,72.50
2019-03-10T01:04:15.911Z,72.10
2019-03-10T01:06:44.520Z,72.30
2019-03-10T01:09:13.083Z,72.60
2019-03-10T01:11:41.622Z,72.60
2019-03-10T01:14:10.194Z,72.60
2019-03-10T01:16:39.013Z,72.60
2019-03-10T01:19:07.582Z,72.90
2019-03-10T01:21:37.579Z,73.20
2019-03-10T01:24:06.215Z,72.90
2019-03-10T01:26:34.749Z,72.80
2019-03-10T01:29:03.396Z,72.70
2019-03-10T01:31:37.570Z,73.00
2019-03-10T01:34:25.551Z,72.80
2019-03-10T01:36:54.023Z,72.90
2019-03-10T01:39:22.587Z,72.70
2019-03-10T01:41:51.150Z,71.60
2019-03-10T01:44:20.240Z,71.60
2019-03-10T01:46:48.698Z,71.80
2019-03-10T01:49:17.171Z,70.90
2019-03-10T01:51:45.740Z,70.80
2019-03-10T01:54:14.282Z,70.60
2019-03-10T01:56:43.053Z,70.60
2019-03-10T01:59:11.664Z,70.80
2019-03-10T02:01:40.162Z,71.00
2019-03-10T02:04:08.709Z,71.00
2019-03-10T02:06:37.179Z,70.70
2019-03-10T02:09:06.283Z,71.10
2019-03-10T02:11:34.780Z,70.70
2019-03-10T02:14:03.340Z,71.00
2019-03-10T02:16:31.922Z,71.10
2019-03-10T02:19:00.453Z,70.90
2019-03-10T02:21:29.083Z,71.30
2019-03-10T02:23:57.551Z,71.40
2019-03-10T02:26:26.046Z,71.60
2019-03-10T02:28:54.539Z,71.50
2019-03-10T02:31:23.058Z,71.80
2019-03-10T02:33:51.628Z,72.00
2019-03-10T02:36:20.176Z,72.00
2019-03-10T02:38:48.727Z,72.20
2019-03-10T02:41:17.263Z,71.60
2019-03-10T02:43:45.837Z,71.90
2019-03-10T02:46:14.383Z,71.50
2019-03-10T02:48:42.931Z,71.50
2019-03-10T02:51:11.440Z,71.10
2019-03-10T02:53:39.937Z,71.00
2019-03-10T02:56:08.477Z,71.10
2019-03-10T02:58:37.053Z,70.80
2019-03-10T03:01:05.600Z,70.50
2019-03-10T03:03:34.271Z,70.60
2019-03-10T03:06:02.746Z,70.40
2019-03-10T03:08:31.289Z,70.70
2019-03-10T03:10:59.781Z,70.50
2019-03-10T03:13:28.247Z,70.70
2019-03-10T03:15:56.899Z,70.60
2019-03-10T03:18:25.438Z,70.80
2019-03-10T03:20:54.042Z,71.00
2019-03-10T03:23:22.584Z,71.20
2019-03-10T03:25:51.059Z,71.40
2019-03-10T03:28:19.643Z,71.80
2019-03-10T03:30:48.181Z,72.30
2019-03-10T03:33:16.712Z,73.60
2019-03-10T03:35:48.297Z,75.30
2019-03-10T03:38:23.092Z,77.30
2019-03-10T03:41:04.080Z,79.20
2019-03-10T03:43:32.625Z,79.40
2019-03-10T03:46:01.240Z,80.50
2019-03-10T03:48:29.796Z,81.70
2019-03-10T03:50:58.326Z,83.30
2019-03-10T03:53:26.888Z,83.70
2019-03-10T03:55:55.357Z,85.60
2019-03-10T03:58:23.919Z,85.30
2019-03-10T04:00:54.060Z,86.30
2019-03-10T04:03:22.596Z,86.40
2019-03-10T04:05:51.178Z,85.20
2019-03-10T04:08:19.710Z,86.30
2019-03-10T04:10:48.180Z,87.30
2019-03-10T04:13:16.748Z,88.00
2019-03-10T04:15:45.236Z,90.20
2019-03-10T04:18:13.774Z,90.20
2019-03-10T04:20:42.269Z,90.60
2019-03-10T04:23:10.803Z,90.80
2019-03-10T04:25:39.292Z,91.90
2019-03-10T04:28:07.850Z,92.70
2019-03-10T04:30:36.315Z,93.30
2019-03-10T04:33:04.939Z,93.90
2019-03-10T04:35:33.431Z,94.40
2019-03-10T04:38:02.007Z,94.50
2019-03-10T04:40:30.519Z,94.80
2019-03-10T04:42:59.011Z,95.00
2019-03-10T04:45:27.620Z,95.30
2019-03-10T04:47:56.179Z,95.30
2019-03-10T04:50:24.715Z,95.30
2019-03-10T04:52:53.204Z,94.50
2019-03-10T04:55:23.382Z,94.80
2019-03-10T04:58:05.450Z,94.70
2019-03-10T05:00:35.619Z,95.40
2019-03-10T05:03:04.366Z,95.90
2019-03-10T05:05:32.950Z,96.20
2019-03-10T05:08:01.534Z,96.50
2019-03-10T05:10:30.031Z,96.60
2019-03-10T05:12:58.495Z,96.70
2019-03-10T05:15:26.991Z,96.70
2019-03-10T05:17:55.623Z,96.30
2019-03-10T05:20:24.179Z,96.60
2019-03-10T05:22:54.283Z,97.00
2019-03-10T05:25:24.995Z,97.10
2019-03-10T05:27:53.531Z,96.90
2019-03-10T05:30:23.471Z,97.20
2019-03-10T05:32:51.963Z,97.20
2019-03-10T05:35:20.423Z,97.30
2019-03-10T05:37:48.912Z,97.20
2019-03-10T05:40:17.478Z,97.10
2019-03-10T05:42:46.019Z,97.00
2019-03-10T05:45:14.556Z,97.20
2019-03-10T05:47:43.039Z,97.10
2019-03-10T05:50:11.527Z,97.20
2019-03-10T05:52:40.019Z,97.00
2019-03-10T05:55:08.635Z,96.70
2019-03-10T05:57:37.162Z,96.40
2019-03-10T06:00:08.959Z,96.80
2019-03-10T06:02:37.479Z,97.40
2019-03-10T06:05:06.646Z,97.60
2019-03-10T06:07:35.110Z,97.80
2019-03-10T06:10:05.035Z,97.70
2019-03-10T06:12:33.495Z,98.00
2019-03-10T06:15:01.989Z,98.00
2019-03-10T06:17:30.583Z,98.30
2019-03-10T06:19:59.071Z,98.70
2019-03-10T06:22:27.535Z,98.70
2019-03-10T06:24:56.103Z,98.70
2019-03-10T06:27:24.638Z,98.50
2019-03-10T06:29:53.105Z,98.40
2019-03-10T06:32:21.593Z,98.40
2019-03-10T06:34:50.056Z,98.40
2019-03-10T06:37:18.526Z,98.20
2019-03-10T06:39:47.012Z,98.40
2019-03-10T06:42:15.470Z,97.70
2019-03-10T06:44:43.963Z,97.90
2019-03-10T06:47:12.527Z,97.90
2019-03-10T06:49:40.991Z,97.60
2019-03-10T06:52:09.471Z,97.60
2019-03-10T06:54:37.944Z,97.50
2019-03-10T06:57:06.499Z,97.20
2019-03-10T06:59:34.963Z,97.80
2019-03-10T07:02:03.447Z,97.70
2019-03-10T07:04:31.974Z,97.60
2019-03-10T07:07:00.463Z,97.70
2019-03-10T07:09:28.923Z,98.10
2019-03-10T07:11:57.411Z,98.30
2019-03-10T07:14:25.895Z,98.30
2019-03-10T07:16:54.383Z,98.60
2019-03-10T07:19:23.046Z,98.90
2019-03-10T07:21:51.578Z,98.90
2019-03-10T07:24:20.042Z,98.60
2019-03-10T07:26:49.501Z,98.30
2019-03-10T07:29:22.743Z,98.40
2019-03-10T07:31:52.941Z,98.60
2019-03-10T07:34:29.062Z,98.60
2019-03-10T07:37:04.668Z,98.80
2019-03-10T07:39:47.115Z,99.20
2019-03-10T07:42:33.290Z,98.70
2019-03-10T07:45:03.396Z,98.90
2019-03-10T07:47:36.000Z,98.90
2019-03-10T07:50:10.791Z,99.10
2019-03-10T07:52:52.914Z,99.10
2019-03-10T07:55:37.995Z,99.10
2019-03-10T07:58:08.122Z,98.90
2019-03-10T08:00:38.357Z,98.30
2019-03-10T08:03:08.496Z,98.40
2019-03-10T08:05:48.812Z,97.90
2019-03-10T08:08:18.955Z,98.00
2019-03-10T08:10:49.074Z,97.80
2019-03-10T08:13:35.983Z,97.00
2019-03-10T08:16:08.872Z,97.30
2019-03-10T08:18:45.047Z,97.50
2019-03-10T08:21:33.563Z,97.30
2019-03-10T08:24:18.764Z,96.90
2019-03-10T08:26:48.944Z,96.80
2019-03-10T08:29:22.041Z,96.50
2019-03-10T08:32:03.715Z,96.40
2019-03-10T08:34:36.655Z,96.30
2019-03-10T08:37:09.683Z,95.60
2019-03-10T08:39:39.786Z,95.30
2019-03-10T08:42:20.106Z,94.30
2019-03-10T08:44:56.756Z,93.60
2019-03-10T08:47:35.787Z,93.60
2019-03-10T08:50:13.515Z,92.70
2019-03-10T08:52:59.774Z,92.50
2019-03-10T08:55:35.795Z,92.20
2019-03-10T08:58:15.016Z,90.10
2019-03-10T09:00:47.572Z,88.80
2019-03-10T09:03:20.837Z,89.70
2019-03-10T09:05:51.091Z,90.80
2019-03-10T09:08:21.267Z,89.40
2019-03-10T09:10:51.394Z,90.30
2019-03-10T09:13:21.577Z,88.10
2019-03-10T09:15:51.785Z,87.00
2019-03-10T09:18:38.195Z,87.90
2019-03-10T09:21:11.147Z,88.30
2019-03-10T09:23:41.327Z,88.70
2019-03-10T09:26:17.463Z,89.60
2019-03-10T09:28:53.631Z,90.70
2019-03-10T09:31:26.547Z,90.40
2019-03-10T09:34:13.113Z,90.90
2019-03-10T09:36:46.290Z,91.00
2019-03-10T09:39:16.470Z,91.70
2019-03-10T09:41:46.677Z,92.20
2019-03-10T09:44:16.783Z,93.60
2019-03-10T09:46:46.983Z,92.90
2019-03-10T09:49:26.258Z,93.40
2019-03-10T09:52:05.301Z,91.70
2019-03-10T09:54:41.715Z,84.90
2019-03-10T09:57:17.948Z,80.60
2019-03-10T09:59:57.126Z,82.10
2019-03-10T10:02:43.684Z,80.80
2019-03-10T10:05:23.076Z,83.90
2019-03-10T10:07:53.289Z,83.70
2019-03-10T10:10:26.228Z,84.90
2019-03-10T10:12:56.359Z,82.70
2019-03-10T10:15:38.523Z,83.50
2019-03-10T10:18:14.411Z,81.10
2019-03-10T10:20:44.653Z,80.30
2019-03-10T10:23:31.496Z,78.70
2019-03-10T10:26:04.395Z,76.10
2019-03-10T10:28:34.505Z,69.60
2019-03-10T10:31:07.576Z,64.50
2019-03-10T10:33:37.759Z,64.90
2019-03-10T10:36:10.950Z,65.40
2019-03-10T10:38:41.079Z,66.20
2019-03-10T10:41:11.287Z,68.30
2019-03-10T10:43:56.781Z,69.00
2019-03-10T10:46:39.275Z,69.90
2019-03-10T10:49:09.558Z,68.10
2019-03-10T10:51:56.290Z,69.10
2019-03-10T10:54:26.470Z,70.10
2019-03-10T10:57:02.703Z,69.30
2019-03-10T10:59:37.805Z,69.80
2019-03-10T11:02:09.499Z,70.70
2019-03-10T11:04:45.362Z,70.50
2019-03-10T11:07:18.551Z,68.10
2019-03-10T11:09:54.844Z,67.10
2019-03-10T11:12:36.765Z,64.80
2019-03-10T11:15:28.090Z,63.30
2019-03-10T11:18:08.980Z,62.30
2019-03-10T11:20:36.071Z,59.10
2019-03-10T11:23:09.407Z,58.70
2019-03-10T11:25:39.518Z,57.60
2019-03-10T11:28:09.643Z,57.60
2019-03-10T11:30:49.154Z,56.40
2019-03-10T11:33:22.171Z,57.30
2019-03-10T11:36:10.209Z,56.30
2019-03-10T11:38:52.491Z,54.60
2019-03-10T11:41:34.101Z,53.40
2019-03-10T11:44:12.863Z,52.70
2019-03-10T11:46:45.507Z,53.10
2019-03-10T11:49:24.452Z,54.10
2019-03-10T11:52:00.427Z,55.00
2019-03-10T11:54:47.183Z,55.00
2019-03-10T11:57:34.027Z,55.00
2019-03-10T12:00:13.364Z,56.40
2019-03-10T12:02:49.799Z,62.10
2019-03-10T12:05:35.323Z,64.40
2019-03-10T12:08:14.842Z,65.00
2019-03-10T12:10:43.483Z,63.20
2019-03-10T12:13:12.018Z,64.00
2019-03-10T12:15:40.653Z,65.60
2019-03-10T12:18:09.143Z,71.90
2019-03-10T12:20:37.694Z,77.60
2019-03-10T12:23:06.331Z,73.50
2019-03-10T12:25:35.011Z,73.50
2019-03-10T12:28:03.499Z,72.60
2019-03-10T12:30:32.302Z,71.10
2019-03-10T12:33:00.881Z,65.40
2019-03-10T12:35:34.478Z,63.00
2019-03-10T12:37:59.960Z,62.10
2019-03-10T12:40:28.555Z,63.30
2019-03-10T12:42:57.114Z,63.10
2019-03-10T12:45:25.663Z,62.50
2019-03-10T12:47:54.136Z,61.60
2019-03-10T12:50:22.719Z,61.40
2019-03-10T12:52:51.184Z,59.50
2019-03-10T12:55:19.783Z,58.80
2019-03-10T12:57:48.370Z,58.60
2019-03-10T13:00:17.758Z,57.80
2019-03-10T13:02:46.359Z,57.60
2019-03-10T13:05:15.038Z,57.00
2019-03-10T13:07:43.603Z,56.30
2019-03-10T13:10:12.879Z,56.20
2019-03-10T13:12:41.508Z,55.50
2019-03-10T13:15:12.115Z,54.90
2019-03-10T13:17:40.831Z,51.60
2019-03-10T13:20:11.311Z,52.50
2019-03-10T13:22:40.121Z,50.90
2019-03-10T13:25:10.696Z,50.30
2019-03-10T13:27:39.191Z,49.40
2019-03-10T13:30:12.966Z,47.40
2019-03-10T13:32:44.074Z,46.00
2019-03-10T13:35:11.891Z,47.60
2019-03-10T13:37:40.491Z,47.60
2019-03-10T13:40:14.185Z,47.90
2019-03-10T13:42:48.558Z,46.80
2019-03-10T13:45:18.358Z,45.40
2019-03-10T13:47:46.939Z,45.60
2019-03-10T13:50:16.248Z,44.00
2019-03-10T13:52:44.866Z,43.30
2019-03-10T13:55:13.970Z,42.20
2019-03-10T13:57:42.503Z,42.30
2019-03-10T14:00:20.955Z,42.10
2019-03-10T14:02:49.629Z,41.90
2019-03-10T14:05:18.259Z,42.90
2019-03-10T14:07:46.835Z,43.10
2019-03-10T14:10:15.847Z,44.60
2019-03-10T14:12:44.404Z,44.20
2019-03-10T14:15:14.231Z,44.70
2019-03-10T14:17:42.722Z,45.20
2019-03-10T14:20:17.576Z,45.80
2019-03-10T14:22:46.036Z,46.40
2019-03-10T14:25:15.660Z,46.50
2019-03-10T14:27:44.831Z,44.90
2019-03-10T14:30:17.911Z,45.00
2019-03-10T14:32:46.615Z,44.60
2019-03-10T14:35:34.490Z,44.50
2019-03-10T14:38:03.211Z,44.50
2019-03-10T14:40:31.819Z,45.80
2019-03-10T14:43:00.463Z,45.60
2019-03-10T14:45:29.071Z,45.70
2019-03-10T14:47:57.538Z,46.20
2019-03-10T14:50:26.099Z,46.60
2019-03-10T14:52:55.011Z,47.40
2019-03-10T14:55:23.647Z,45.80
2019-03-10T14:57:52.263Z,43.10
2019-03-10T15:00:28.479Z,42.90
2019-03-10T15:02:57.012Z,43.40
2019-03-10T15:05:25.719Z,42.20
2019-03-10T15:07:54.278Z,43.00
2019-03-10T15:10:22.998Z,43.30
2019-03-10T15:12:51.566Z,44.20
2019-03-10T15:15:22.861Z,45.30
2019-03-10T15:17:51.459Z,45.20
2019-03-10T15:20:21.600Z,42.20
2019-03-10T15:22:50.347Z,42.20
2019-03-10T15:25:20.253Z,41.30
2019-03-10T15:27:48.792Z,42.10
2019-03-10T15:30:19.168Z,42.20
2019-03-10T15:32:47.795Z,42.90
2019-03-10T15:35:17.279Z,43.30
2019-03-10T15:37:45.975Z,41.60
2019-03-10T15:40:17.985Z,41.60
2019-03-10T15:42:46.616Z,40.00
2019-03-10T15:45:16.286Z,40.50
2019-03-10T15:47:45.029Z,40.80
2019-03-10T15:50:16.875Z,41.40
2019-03-10T15:53:04.875Z,42.20
2019-03-10T15:55:33.411Z,41.10
2019-03-10T15:58:03.898Z,41.10
2019-03-10T16:00:32.679Z,41.90
2019-03-10T16:03:01.223Z,43.00
2019-03-10T16:05:29.787Z,42.40
2019-03-10T16:07:58.324Z,42.80
2019-03-10T16:10:27.619Z,41.90
2019-03-10T16:12:56.203Z,42.20
2019-03-10T16:15:32.191Z,42.70
2019-03-10T16:18:00.919Z,42.40
2019-03-10T16:20:29.595Z,42.70
2019-03-10T16:22:58.063Z,42.50
2019-03-10T16:25:26.627Z,42.50
2019-03-10T16:27:55.086Z,42.60
2019-03-10T16:30:28.676Z,43.50
2019-03-10T16:32:57.243Z,43.00
2019-03-10T16:35:25.811Z,42.60
2019-03-10T16:37:54.339Z,42.50
2019-03-10T16:40:23.006Z,42.50
2019-03-10T16:42:51.647Z,42.40
2019-03-10T16:45:28.575Z,42.40
2019-03-10T16:47:58.774Z,41.90
2019-03-10T16:50:28.092Z,41.80
2019-03-10T16:52:56.791Z,42.50
2019-03-10T16:55:25.295Z,43.30
2019-03-10T16:57:53.843Z,43.10
2019-03-10T17:00:22.386Z,42.90
2019-03-10T17:02:52.715Z,42.40
2019-03-10T17:05:22.038Z,41.20
2019-03-10T17:07:50.732Z,41.70
2019-03-10T17:10:22.279Z,42.40
2019-03-10T17:12:50.938Z,42.40
2019-03-10T17:15:21.110Z,42.60
2019-03-10T17:17:49.743Z,43.40
2019-03-10T17:20:19.667Z,44.60
2019-03-10T17:22:48.320Z,45.20
2019-03-10T17:25:17.502Z,47.50
2019-03-10T17:27:46.320Z,46.90
2019-03-10T17:30:19.665Z,47.50
2019-03-10T17:32:48.459Z,47.20
2019-03-10T17:35:17.958Z,46.80
2019-03-10T17:37:48.556Z,46.60
2019-03-10T17:40:26.557Z,45.40
2019-03-10T17:42:55.264Z,46.10
2019-03-10T17:45:24.897Z,46.20
2019-03-10T17:47:53.429Z,46.40
2019-03-10T17:50:22.163Z,46.80
2019-03-10T17:52:51.136Z,47.60
2019-03-10T17:55:20.951Z,48.70
2019-03-10T17:57:49.839Z,48.90
2019-03-10T18:00:21.059Z,50.40
2019-03-10T18:02:49.776Z,55.30
2019-03-10T18:05:18.508Z,58.90
2019-03-10T18:07:47.075Z,66.90
2019-03-10T18:10:16.876Z,70.60
2019-03-10T18:12:45.583Z,75.90
2019-03-10T18:15:17.586Z,81.30
2019-03-10T18:17:46.283Z,81.70
2019-03-10T18:20:19.783Z,84.10
2019-03-10T18:22:48.341Z,84.10
2019-03-10T18:25:16.962Z,84.80
2019-03-10T18:27:45.520Z,84.70
2019-03-10T18:30:18.969Z,84.80
2019-03-10T18:32:47.675Z,82.30
2019-03-10T18:35:16.435Z,82.20
2019-03-10T18:37:45.052Z,81.30
2019-03-10T18:40:22.199Z,81.60
2019-03-10T18:42:50.729Z,81.60
2019-03-10T18:45:20.143Z,81.90
2019-03-10T18:47:48.851Z,81.90
2019-03-10T18:50:19.539Z,80.50
2019-03-10T18:52:48.399Z,80.20
2019-03-10T18:55:18.015Z,80.80
2019-03-10T18:57:46.692Z,80.00
2019-03-10T19:00:31.416Z,79.90
2019-03-10T19:03:54.807Z,78.90
2019-03-10T19:06:23.314Z,78.30
2019-03-10T19:08:51.843Z,78.30
2019-03-10T19:11:20.428Z,78.10
2019-03-10T19:13:49.930Z,77.60
2019-03-10T19:16:18.407Z,77.20
2019-03-10T19:18:46.866Z,75.70
2019-03-10T19:21:15.444Z,75.60
2019-03-10T19:23:44.062Z,76.00
2019-03-10T19:26:12.668Z,76.30
2019-03-10T19:28:41.223Z,76.00
2019-03-10T19:31:09.692Z,76.60
2019-03-10T19:33:38.244Z,76.50
2019-03-10T19:36:06.724Z,77.60
2019-03-10T19:38:35.289Z,78.60
2019-03-10T19:41:03.748Z,79.30
2019-03-10T19:43:32.331Z,79.30
2019-03-10T19:46:00.859Z,79.20
2019-03-10T19:48:29.420Z,80.00
2019-03-10T19:50:57.955Z,82.10
2019-03-10T19:53:26.416Z,82.50
2019-03-10T19:55:54.978Z,84.90
2019-03-10T19:58:23.450Z,88.00
2019-03-10T20:00:51.936Z,90.20
2019-03-10T20:03:20.407Z,86.30
2019-03-10T20:05:49.092Z,88.40
2019-03-10T20:08:17.555Z,88.00
2019-03-10T20:10:46.115Z,88.10
2019-03-10T20:13:14.575Z,89.90
2019-03-10T20:15:43.079Z,89.50
2019-03-10T20:18:11.546Z,88.50
2019-03-10T20:20:40.171Z,89.10
2019-03-10T20:23:08.658Z,87.20
2019-03-10T20:25:37.204Z,87.50
2019-03-10T20:28:05.703Z,86.50
2019-03-10T20:30:34.172Z,85.80
2019-03-10T20:33:02.723Z,84.90
2019-03-10T20:35:31.353Z,85.20
2019-03-10T20:37:59.966Z,84.60
2019-03-10T20:40:29.073Z,84.10
2019-03-10T20:42:57.626Z,84.30
2019-03-10T20:45:26.165Z,84.00
2019-03-10T20:47:56.630Z,83.80
2019-03-10T20:50:25.112Z,84.40
2019-03-10T20:52:53.618Z,84.70
2019-03-10T20:55:22.175Z,86.00
2019-03-10T20:57:50.808Z,86.40
2019-03-10T21:00:21.655Z,86.70
2019-03-10T21:02:50.226Z,85.10
2019-03-10T21:05:18.759Z,85.30
2019-03-10T21:07:47.286Z,84.60
2019-03-10T21:10:26.978Z,82.80
2019-03-10T21:12:55.538Z,82.70
2019-03-10T21:15:26.161Z,82.20
2019-03-10T21:17:54.823Z,80.50
2019-03-10T21:20:24.516Z,78.90
2019-03-10T21:22:53.125Z,79.80
2019-03-10T21:25:30.737Z,81.50
2019-03-10T21:28:11.825Z,81.50
2019-03-10T21:30:40.339Z,81.90
2019-03-10T21:33:08.914Z,83.20
2019-03-10T21:35:37.540Z,83.20
2019-03-10T21:38:06.102Z,83.90
2019-03-10T21:40:34.930Z,84.60
2019-03-10T21:43:03.699Z,85.40
2019-03-10T21:45:32.232Z,85.20
2019-03-10T21:48:00.858Z,85.50
2019-03-10T21:50:29.483Z,85.60
2019-03-10T21:52:59.399Z,85.60
2019-03-10T21:55:27.932Z,86.60
2019-03-10T21:57:56.490Z,86.40
2019-03-10T22:00:25.120Z,86.60
2019-03-10T22:02:53.754Z,87.30
2019-03-10T22:05:22.379Z,87.80
2019-03-10T22:07:51.037Z,87.70
2019-03-10T22:10:26.882Z,88.20
2019-03-10T22:12:50.752Z,87.80
2019-03-10T22:15:20.271Z,87.70
2019-03-10T22:17:48.827Z,87.70
2019-03-10T22:20:19.572Z,87.70
2019-03-10T22:22:49.832Z,87.60
2019-03-10T22:25:18.685Z,86.50
2019-03-10T22:27:47.220Z,87.00
2019-03-10T22:30:36.956Z,87.40
2019-03-10T22:33:05.571Z,87.60
2019-03-10T22:35:34.623Z,87.90
2019-03-10T22:38:03.152Z,88.30
2019-03-10T22:40:31.712Z,88.00
2019-03-10T22:43:00.275Z,88.40
2019-03-10T22:45:28.871Z,88.90
2019-03-10T22:47:57.355Z,88.90
2019-03-10T22:50:25.948Z,88.30
2019-03-10T22:52:54.407Z,87.90
2019-03-10T22:55:22.916Z,87.90
2019-03-10T22:57:51.531Z,87.30
2019-03-10T23:00:22.380Z,87.60
2019-03-10T23:02:51.170Z,87.80
2019-03-10T23:05:19.970Z,87.20
2019-03-10T23:07:48.578Z,87.40
2019-03-10T23:10:17.112Z,87.50
2019-03-10T23:12:45.688Z,87.40
2019-03-10T23:15:15.486Z,87.90
2019-03-10T23:17:44.151Z,88.00
2019-03-10T23:20:14.275Z,87.90
2019-03-10T23:22:42.831Z,87.90
2019-03-10T23:25:11.864Z,87.10
2019-03-10T23:27:40.416Z,87.10
2019-03-10T23:30:17.150Z,87.10
2019-03-10T23:32:45.656Z,86.70
2019-03-10T23:35:14.323Z,86.30
2019-03-10T23:37:42.846Z,86.30
2019-03-10T23:40:21.830Z,86.40
2019-03-10T23:42:50.287Z,86.00
2019-03-10T23:45:19.288Z,86.50
2019-03-10T23:47:47.870Z,86.90
2019-03-10T23:50:17.667Z,86.60
2019-03-10T23:52:46.130Z,86.80
2019-03-10T23:55:15.355Z,86.80
2019-03-10T23:57:43.976Z,87.30
